This is the latest recevied weather packets stored in our database for station/object OM2RC-6. If no packets are shown the sender has not sent any weather packets the latest 10 day(s).
| Time | Temp. | Humidity | Pressure | Rain* | Wind** | Luminosity | Snow |
|---|---|---|---|---|---|---|---|
| 1777314406 | 10.56° C | 63% | 1021.3 hPa | - | - | - | - |
| 1777313804 | 10.56° C | 65% | 1021.4 hPa | - | - | - | - |
| 1777313503 | 10.56° C | 66% | 1021.3 hPa | - | - | - | - |
| 1777313202 | 11.11° C | 64% | 1021.2 hPa | - | - | - | - |
| 1777312901 | 11.11° C | 61% | 1021.2 hPa | - | - | - | - |
| 1777312600 | 11.67° C | 59% | 1021.2 hPa | - | - | - | - |
| 1777312299 | 12.22° C | 55% | 1021.1 hPa | - | - | - | - |
| 1777311998 | 12.78° C | 56% | 1021.1 hPa | - | - | - | - |
| 1777311697 | 13.33° C | 49% | 1021.1 hPa | - | - | - | - |
| 1777311396 | 13.89° C | 47% | 1021.2 hPa | - | - | - | - |
| 1777311095 | 13.89° C | 49% | 1021.1 hPa | - | - | - | - |
| 1777310794 | 14.44° C | 48% | 1021.1 hPa | - | - | - | - |
| 1777310192 | 15.56° C | 37% | 1021 hPa | - | - | - | - |
| 1777309891 | 16.11° C | 36% | 1021.1 hPa | - | - | - | - |
| 1777309590 | 16.11° C | 35% | 1021 hPa | - | - | - | - |
| 1777309289 | 16.11° C | 35% | 1020.9 hPa | - | - | - | - |
| 1777308988 | 16.11° C | 35% | 1021 hPa | - | - | - | - |
| 1777308687 | 16.11° C | 35% | 1020.9 hPa | - | - | - | - |
| 1777308386 | 16.11° C | 36% | 1020.9 hPa | - | - | - | - |
| 1777308085 | 16.11° C | 36% | 1020.9 hPa | - | - | - | - |
| 1777307784 | 15.56° C | 36% | 1021 hPa | - | - | - | - |
| 1777307483 | 16.11° C | 36% | 1020.9 hPa | - | - | - | - |
| 1777307182 | 16.11° C | 36% | 1021 hPa | - | - | - | - |
| 1777306881 | 16.11° C | 35% | 1021 hPa | - | - | - | - |
| 1777306580 | 16.67° C | 34% | 1020.9 hPa | - | - | - | - |
* Rain since midnight (hover to see other rain measurements)
** Current wind speed in m/s (hover to see current wind gust speed)